sensor_id;sensor_type;location;lat;lon;timestamp;temperature;humidity
26378;DHT22;14078;50.974;6.786;2023-08-21T00:00:07;20.80;1.00
26378;DHT22;14078;50.974;6.786;2023-08-21T00:02:35;20.80;8.60
26378;DHT22;14078;50.974;6.786;2023-08-21T00:05:02;20.80;1.00
26378;DHT22;14078;50.974;6.786;2023-08-21T00:07:28;20.90;1.00
26378;DHT22;14078;50.974;6.786;2023-08-21T00:09:55;21.00;1.00
26378;DHT22;14078;50.974;6.786;2023-08-21T00:12:21;20.90;1.00
26378;DHT22;14078;50.974;6.786;2023-08-21T00:14:48;20.80;11.90
26378;DHT22;14078;50.974;6.786;2023-08-21T00:17:14;20.80;17.20
26378;DHT22;14078;50.974;6.786;2023-08-21T00:19:42;20.80;7.60
26378;DHT22;14078;50.974;6.786;2023-08-21T00:22:08;20.70;1.00
26378;DHT22;14078;50.974;6.786;2023-08-21T00:24:35;20.70;1.00
26378;DHT22;14078;50.974;6.786;2023-08-21T00:27:01;20.60;1.00
26378;DHT22;14078;50.974;6.786;2023-08-21T00:29:28;20.70;1.00
26378;DHT22;14078;50.974;6.786;2023-08-21T00:31:55;20.70;1.00
26378;DHT22;14078;50.974;6.786;2023-08-21T00:34:22;20.70;1.00
26378;DHT22;14078;50.974;6.786;2023-08-21T00:36:49;20.60;1.00
26378;DHT22;14078;50.974;6.786;2023-08-21T00:39:16;20.60;1.00
26378;DHT22;14078;50.974;6.786;2023-08-21T00:41:42;20.60;1.00
26378;DHT22;14078;50.974;6.786;2023-08-21T00:44:09;20.60;1.00
26378;DHT22;14078;50.974;6.786;2023-08-21T00:46:35;20.50;1.00
26378;DHT22;14078;50.974;6.786;2023-08-21T00:49:02;20.50;1.00
26378;DHT22;14078;50.974;6.786;2023-08-21T00:51:29;20.50;1.00
26378;DHT22;14078;50.974;6.786;2023-08-21T00:53:57;20.50;1.00
26378;DHT22;14078;50.974;6.786;2023-08-21T00:56:23;20.50;1.00
26378;DHT22;14078;50.974;6.786;2023-08-21T00:58:50;20.50;1.00
26378;DHT22;14078;50.974;6.786;2023-08-21T01:01:17;20.50;1.00
26378;DHT22;14078;50.974;6.786;2023-08-21T01:03:44;20.50;1.00
26378;DHT22;14078;50.974;6.786;2023-08-21T01:06:11;20.40;1.00
26378;DHT22;14078;50.974;6.786;2023-08-21T01:08:39;20.40;1.00
26378;DHT22;14078;50.974;6.786;2023-08-21T01:11:11;20.40;1.00
26378;DHT22;14078;50.974;6.786;2023-08-21T01:13:43;20.30;1.00
26378;DHT22;14078;50.974;6.786;2023-08-21T01:16:10;20.30;1.00
26378;DHT22;14078;50.974;6.786;2023-08-21T01:18:39;20.30;1.00
26378;DHT22;14078;50.974;6.786;2023-08-21T01:21:05;20.20;1.00
26378;DHT22;14078;50.974;6.786;2023-08-21T01:23:34;20.10;8.10
26378;DHT22;14078;50.974;6.786;2023-08-21T01:26:01;20.10;35.30
26378;DHT22;14078;50.974;6.786;2023-08-21T01:28:27;20.10;23.80
26378;DHT22;14078;50.974;6.786;2023-08-21T01:33:38;20.00;7.40
26378;DHT22;14078;50.974;6.786;2023-08-21T01:36:07;20.00;32.60
26378;DHT22;14078;50.974;6.786;2023-08-21T01:38:35;20.00;35.10
26378;DHT22;14078;50.974;6.786;2023-08-21T01:41:01;20.00;44.30
26378;DHT22;14078;50.974;6.786;2023-08-21T01:43:28;20.00;38.40
26378;DHT22;14078;50.974;6.786;2023-08-21T01:45:54;20.00;26.70
26378;DHT22;14078;50.974;6.786;2023-08-21T01:48:21;20.00;26.30
26378;DHT22;14078;50.974;6.786;2023-08-21T01:50:47;20.00;1.00
26378;DHT22;14078;50.974;6.786;2023-08-21T01:53:14;20.00;29.00
26378;DHT22;14078;50.974;6.786;2023-08-21T01:55:42;20.00;42.70
26378;DHT22;14078;50.974;6.786;2023-08-21T01:58:08;20.10;6.80
26378;DHT22;14078;50.974;6.786;2023-08-21T02:00:35;20.10;1.00
26378;DHT22;14078;50.974;6.786;2023-08-21T02:03:01;20.00;1.00
26378;DHT22;14078;50.974;6.786;2023-08-21T02:05:28;20.00;10.90
26378;DHT22;14078;50.974;6.786;2023-08-21T02:07:54;20.00;12.30
26378;DHT22;14078;50.974;6.786;2023-08-21T02:10:21;19.90;8.90
26378;DHT22;14078;50.974;6.786;2023-08-21T02:12:49;19.90;9.60
26378;DHT22;14078;50.974;6.786;2023-08-21T02:15:15;19.90;25.20
26378;DHT22;14078;50.974;6.786;2023-08-21T02:17:42;19.80;25.20
26378;DHT22;14078;50.974;6.786;2023-08-21T02:20:09;19.80;32.30
26378;DHT22;14078;50.974;6.786;2023-08-21T02:22:36;19.80;20.60
26378;DHT22;14078;50.974;6.786;2023-08-21T02:25:03;19.70;43.10
26378;DHT22;14078;50.974;6.786;2023-08-21T02:27:29;19.70;46.30
26378;DHT22;14078;50.974;6.786;2023-08-21T02:29:57;19.70;32.20
26378;DHT22;14078;50.974;6.786;2023-08-21T02:32:24;19.60;57.70
26378;DHT22;14078;50.974;6.786;2023-08-21T02:34:50;19.60;70.90
26378;DHT22;14078;50.974;6.786;2023-08-21T02:37:17;19.60;42.20
26378;DHT22;14078;50.974;6.786;2023-08-21T02:39:43;19.60;75.60
26378;DHT22;14078;50.974;6.786;2023-08-21T02:42:10;19.60;69.70
26378;DHT22;14078;50.974;6.786;2023-08-21T02:44:36;19.60;83.10
26378;DHT22;14078;50.974;6.786;2023-08-21T02:47:04;19.60;79.90
26378;DHT22;14078;50.974;6.786;2023-08-21T02:49:31;19.60;71.60
26378;DHT22;14078;50.974;6.786;2023-08-21T02:51:57;19.60;37.90
26378;DHT22;14078;50.974;6.786;2023-08-21T02:54:24;19.50;36.80
26378;DHT22;14078;50.974;6.786;2023-08-21T02:56:50;19.60;13.60
26378;DHT22;14078;50.974;6.786;2023-08-21T02:59:17;19.70;3.60
26378;DHT22;14078;50.974;6.786;2023-08-21T03:01:43;19.60;20.60
26378;DHT22;14078;50.974;6.786;2023-08-21T03:04:11;19.50;16.70
26378;DHT22;14078;50.974;6.786;2023-08-21T03:06:38;19.40;38.50
26378;DHT22;14078;50.974;6.786;2023-08-21T03:09:04;19.40;76.40
26378;DHT22;14078;50.974;6.786;2023-08-21T03:11:31;19.50;93.20
26378;DHT22;14078;50.974;6.786;2023-08-21T03:13:57;19.40;72.80
26378;DHT22;14078;50.974;6.786;2023-08-21T03:16:24;19.50;48.20
26378;DHT22;14078;50.974;6.786;2023-08-21T03:18:54;19.50;75.40
26378;DHT22;14078;50.974;6.786;2023-08-21T03:21:22;19.40;93.70
26378;DHT22;14078;50.974;6.786;2023-08-21T03:23:49;19.30;99.90
26378;DHT22;14078;50.974;6.786;2023-08-21T03:26:16;19.00;99.90
26378;DHT22;14078;50.974;6.786;2023-08-21T03:28:42;18.90;99.90
26378;DHT22;14078;50.974;6.786;2023-08-21T03:31:09;19.00;99.90
26378;DHT22;14078;50.974;6.786;2023-08-21T03:33:35;19.20;99.90
26378;DHT22;14078;50.974;6.786;2023-08-21T03:36:02;19.30;95.10
26378;DHT22;14078;50.974;6.786;2023-08-21T03:38:30;19.30;99.90
26378;DHT22;14078;50.974;6.786;2023-08-21T03:40:56;19.40;99.90
26378;DHT22;14078;50.974;6.786;2023-08-21T03:43:23;19.40;99.90
26378;DHT22;14078;50.974;6.786;2023-08-21T03:45:49;19.50;99.90
26378;DHT22;14078;50.974;6.786;2023-08-21T03:48:16;19.60;64.00
26378;DHT22;14078;50.974;6.786;2023-08-21T03:50:42;19.60;54.50
26378;DHT22;14078;50.974;6.786;2023-08-21T03:53:09;19.70;28.30
26378;DHT22;14078;50.974;6.786;2023-08-21T03:55:37;19.80;21.40
26378;DHT22;14078;50.974;6.786;2023-08-21T03:58:03;19.80;43.00
26378;DHT22;14078;50.974;6.786;2023-08-21T04:00:30;19.70;28.40
26378;DHT22;14078;50.974;6.786;2023-08-21T04:02:57;19.60;57.10
26378;DHT22;14078;50.974;6.786;2023-08-21T04:05:23;19.50;97.40
26378;DHT22;14078;50.974;6.786;2023-08-21T04:07:50;19.30;99.90
26378;DHT22;14078;50.974;6.786;2023-08-21T04:10:18;19.20;99.90
26378;DHT22;14078;50.974;6.786;2023-08-21T04:12:46;19.00;99.90
26378;DHT22;14078;50.974;6.786;2023-08-21T04:15:12;18.90;99.90
26378;DHT22;14078;50.974;6.786;2023-08-21T04:17:39;19.00;99.90
26378;DHT22;14078;50.974;6.786;2023-08-21T04:20:06;19.10;99.90
26378;DHT22;14078;50.974;6.786;2023-08-21T04:22:33;19.00;99.90
26378;DHT22;14078;50.974;6.786;2023-08-21T04:24:59;19.00;99.90
26378;DHT22;14078;50.974;6.786;2023-08-21T04:27:26;19.20;99.90
26378;DHT22;14078;50.974;6.786;2023-08-21T04:29:54;19.20;99.90
26378;DHT22;14078;50.974;6.786;2023-08-21T04:32:21;19.30;99.90
26378;DHT22;14078;50.974;6.786;2023-08-21T04:34:47;19.50;99.90
26378;DHT22;14078;50.974;6.786;2023-08-21T04:37:14;19.50;99.90
26378;DHT22;14078;50.974;6.786;2023-08-21T04:39:41;19.40;98.10
26378;DHT22;14078;50.974;6.786;2023-08-21T04:42:07;19.40;98.40
26378;DHT22;14078;50.974;6.786;2023-08-21T04:44:34;19.30;98.00
26378;DHT22;14078;50.974;6.786;2023-08-21T04:49:43;19.10;99.90
26378;DHT22;14078;50.974;6.786;2023-08-21T04:52:09;19.10;99.90
26378;DHT22;14078;50.974;6.786;2023-08-21T04:54:36;19.20;99.90
26378;DHT22;14078;50.974;6.786;2023-08-21T04:57:02;19.20;99.90
26378;DHT22;14078;50.974;6.786;2023-08-21T04:59:29;19.30;99.90
26378;DHT22;14078;50.974;6.786;2023-08-21T05:01:56;19.20;99.90
26378;DHT22;14078;50.974;6.786;2023-08-21T05:04:22;19.20;99.90
26378;DHT22;14078;50.974;6.786;2023-08-21T05:06:50;19.20;99.90
26378;DHT22;14078;50.974;6.786;2023-08-21T05:09:17;19.30;99.90
26378;DHT22;14078;50.974;6.786;2023-08-21T05:11:43;19.30;99.90
26378;DHT22;14078;50.974;6.786;2023-08-21T05:14:10;19.30;99.90
26378;DHT22;14078;50.974;6.786;2023-08-21T05:16:36;19.30;99.90
26378;DHT22;14078;50.974;6.786;2023-08-21T05:19:03;19.40;99.90
26378;DHT22;14078;50.974;6.786;2023-08-21T05:21:29;19.50;99.90
26378;DHT22;14078;50.974;6.786;2023-08-21T05:23:57;19.50;99.90
26378;DHT22;14078;50.974;6.786;2023-08-21T05:26:24;19.60;99.90
26378;DHT22;14078;50.974;6.786;2023-08-21T05:28:50;19.60;97.00
26378;DHT22;14078;50.974;6.786;2023-08-21T05:31:17;19.60;84.50
26378;DHT22;14078;50.974;6.786;2023-08-21T05:33:43;19.70;83.60
26378;DHT22;14078;50.974;6.786;2023-08-21T05:36:10;19.70;87.00
26378;DHT22;14078;50.974;6.786;2023-08-21T05:38:37;19.70;65.30
26378;DHT22;14078;50.974;6.786;2023-08-21T05:41:05;19.80;57.90
26378;DHT22;14078;50.974;6.786;2023-08-21T05:43:31;19.70;57.40
26378;DHT22;14078;50.974;6.786;2023-08-21T05:45:58;19.80;73.00
26378;DHT22;14078;50.974;6.786;2023-08-21T05:48:24;19.80;89.90
26378;DHT22;14078;50.974;6.786;2023-08-21T05:50:51;19.90;86.20
26378;DHT22;14078;50.974;6.786;2023-08-21T05:53:18;19.90;93.60
26378;DHT22;14078;50.974;6.786;2023-08-21T05:55:45;20.00;82.70
26378;DHT22;14078;50.974;6.786;2023-08-21T05:58:12;20.00;87.40
26378;DHT22;14078;50.974;6.786;2023-08-21T06:00:39;20.00;82.30
26378;DHT22;14078;50.974;6.786;2023-08-21T06:03:05;20.10;63.80
26378;DHT22;14078;50.974;6.786;2023-08-21T06:05:32;20.10;62.50
26378;DHT22;14078;50.974;6.786;2023-08-21T06:07:58;20.10;77.70
26378;DHT22;14078;50.974;6.786;2023-08-21T06:10:25;20.20;65.80
26378;DHT22;14078;50.974;6.786;2023-08-21T06:12:51;20.10;49.00
26378;DHT22;14078;50.974;6.786;2023-08-21T06:15:19;20.10;41.90
26378;DHT22;14078;50.974;6.786;2023-08-21T06:17:46;20.10;61.90
26378;DHT22;14078;50.974;6.786;2023-08-21T06:20:12;20.20;56.10
26378;DHT22;14078;50.974;6.786;2023-08-21T06:22:39;20.20;55.20
26378;DHT22;14078;50.974;6.786;2023-08-21T06:25:06;20.30;53.30
26378;DHT22;14078;50.974;6.786;2023-08-21T06:27:33;20.30;48.80
26378;DHT22;14078;50.974;6.786;2023-08-21T06:29:59;20.30;39.30
26378;DHT22;14078;50.974;6.786;2023-08-21T06:32:27;20.40;45.20
26378;DHT22;14078;50.974;6.786;2023-08-21T06:34:54;20.50;40.10
26378;DHT22;14078;50.974;6.786;2023-08-21T06:37:20;20.50;44.80
26378;DHT22;14078;50.974;6.786;2023-08-21T06:39:47;20.60;90.60
26378;DHT22;14078;50.974;6.786;2023-08-21T06:42:13;20.60;65.80
26378;DHT22;14078;50.974;6.786;2023-08-21T06:44:40;20.60;44.10
26378;DHT22;14078;50.974;6.786;2023-08-21T06:47:06;20.70;49.90
26378;DHT22;14078;50.974;6.786;2023-08-21T06:49:34;20.80;29.80
26378;DHT22;14078;50.974;6.786;2023-08-21T06:52:01;20.80;31.50
26378;DHT22;14078;50.974;6.786;2023-08-21T06:54:29;20.90;69.50
26378;DHT22;14078;50.974;6.786;2023-08-21T06:56:55;21.00;54.90
26378;DHT22;14078;50.974;6.786;2023-08-21T06:59:22;21.10;8.70
26378;DHT22;14078;50.974;6.786;2023-08-21T07:01:48;21.20;1.00
26378;DHT22;14078;50.974;6.786;2023-08-21T07:04:15;21.30;1.00
26378;DHT22;14078;50.974;6.786;2023-08-21T07:06:43;21.30;1.00
26378;DHT22;14078;50.974;6.786;2023-08-21T07:09:09;21.50;1.00
26378;DHT22;14078;50.974;6.786;2023-08-21T07:11:36;21.50;1.00
26378;DHT22;14078;50.974;6.786;2023-08-21T07:14:02;21.50;2.70
26378;DHT22;14078;50.974;6.786;2023-08-21T07:16:29;21.60;6.80
26378;DHT22;14078;50.974;6.786;2023-08-21T07:18:55;21.70;1.00
26378;DHT22;14078;50.974;6.786;2023-08-21T07:21:22;21.80;1.00
26378;DHT22;14078;50.974;6.786;2023-08-21T07:23:50;21.90;1.00
26378;DHT22;14078;50.974;6.786;2023-08-21T07:26:16;22.00;1.00
26378;DHT22;14078;50.974;6.786;2023-08-21T07:28:43;22.10;1.00
26378;DHT22;14078;50.974;6.786;2023-08-21T07:31:09;22.10;1.00
26378;DHT22;14078;50.974;6.786;2023-08-21T07:33:36;22.20;1.00
26378;DHT22;14078;50.974;6.786;2023-08-21T07:36:03;22.30;1.60
26378;DHT22;14078;50.974;6.786;2023-08-21T07:38:30;22.30;1.00
26378;DHT22;14078;50.974;6.786;2023-08-21T07:41:04;22.40;1.00
26378;DHT22;14078;50.974;6.786;2023-08-21T07:43:33;22.40;1.00
26378;DHT22;14078;50.974;6.786;2023-08-21T07:46:01;22.50;1.00
26378;DHT22;14078;50.974;6.786;2023-08-21T07:48:31;22.60;1.00
26378;DHT22;14078;50.974;6.786;2023-08-21T07:50:58;22.60;1.00
26378;DHT22;14078;50.974;6.786;2023-08-21T07:53:25;22.70;99.90
26378;DHT22;14078;50.974;6.786;2023-08-21T07:55:52;22.80;99.90
26378;DHT22;14078;50.974;6.786;2023-08-21T07:58:20;22.80;1.00
26378;DHT22;14078;50.974;6.786;2023-08-21T08:00:46;22.80;1.00
26378;DHT22;14078;50.974;6.786;2023-08-21T08:03:13;22.80;1.00
26378;DHT22;14078;50.974;6.786;2023-08-21T08:05:40;22.80;99.90
26378;DHT22;14078;50.974;6.786;2023-08-21T08:08:07;22.80;1.00
26378;DHT22;14078;50.974;6.786;2023-08-21T08:10:36;22.90;1.00
26378;DHT22;14078;50.974;6.786;2023-08-21T08:13:03;23.00;1.00
26378;DHT22;14078;50.974;6.786;2023-08-21T08:15:30;23.10;1.00
26378;DHT22;14078;50.974;6.786;2023-08-21T08:17:59;23.20;99.90
26378;DHT22;14078;50.974;6.786;2023-08-21T08:20:25;23.30;99.90
26378;DHT22;14078;50.974;6.786;2023-08-21T08:22:52;23.30;99.90
26378;DHT22;14078;50.974;6.786;2023-08-21T08:25:19;23.30;99.90
26378;DHT22;14078;50.974;6.786;2023-08-21T08:27:45;23.30;1.00
26378;DHT22;14078;50.974;6.786;2023-08-21T08:30:12;23.30;1.00
26378;DHT22;14078;50.974;6.786;2023-08-21T08:32:41;23.40;1.00
26378;DHT22;14078;50.974;6.786;2023-08-21T08:35:10;23.40;1.00
26378;DHT22;14078;50.974;6.786;2023-08-21T08:37:36;23.50;99.90
26378;DHT22;14078;50.974;6.786;2023-08-21T08:40:03;23.50;1.00
26378;DHT22;14078;50.974;6.786;2023-08-21T08:42:30;23.60;1.00
26378;DHT22;14078;50.974;6.786;2023-08-21T08:44:57;23.70;1.00
26378;DHT22;14078;50.974;6.786;2023-08-21T08:47:25;23.80;99.90
26378;DHT22;14078;50.974;6.786;2023-08-21T08:49:55;23.80;1.00
26378;DHT22;14078;50.974;6.786;2023-08-21T08:52:21;23.80;98.00
26378;DHT22;14078;50.974;6.786;2023-08-21T08:54:49;23.90;1.00
26378;DHT22;14078;50.974;6.786;2023-08-21T08:57:15;23.90;99.90
26378;DHT22;14078;50.974;6.786;2023-08-21T08:59:42;23.90;1.00
26378;DHT22;14078;50.974;6.786;2023-08-21T09:02:08;24.00;99.90
26378;DHT22;14078;50.974;6.786;2023-08-21T09:04:35;24.00;24.30
26378;DHT22;14078;50.974;6.786;2023-08-21T09:07:09;23.90;19.70
26378;DHT22;14078;50.974;6.786;2023-08-21T09:09:39;23.90;99.90
26378;DHT22;14078;50.974;6.786;2023-08-21T09:12:09;23.90;99.90
26378;DHT22;14078;50.974;6.786;2023-08-21T09:14:36;24.10;6.80
26378;DHT22;14078;50.974;6.786;2023-08-21T09:17:02;24.30;1.00
26378;DHT22;14078;50.974;6.786;2023-08-21T09:19:29;24.30;99.90
26378;DHT22;14078;50.974;6.786;2023-08-21T09:21:56;24.30;99.90
26378;DHT22;14078;50.974;6.786;2023-08-21T09:24:24;24.40;99.90
26378;DHT22;14078;50.974;6.786;2023-08-21T09:26:50;24.30;1.00
26378;DHT22;14078;50.974;6.786;2023-08-21T09:29:18;24.40;99.90
26378;DHT22;14078;50.974;6.786;2023-08-21T09:31:44;24.50;99.90
26378;DHT22;14078;50.974;6.786;2023-08-21T09:34:12;24.40;99.90
26378;DHT22;14078;50.974;6.786;2023-08-21T09:36:38;24.50;99.90
26378;DHT22;14078;50.974;6.786;2023-08-21T09:39:05;24.60;99.90
26378;DHT22;14078;50.974;6.786;2023-08-21T09:41:34;24.60;99.90
26378;DHT22;14078;50.974;6.786;2023-08-21T09:44:00;24.60;99.90
26378;DHT22;14078;50.974;6.786;2023-08-21T09:46:29;24.60;99.90
26378;DHT22;14078;50.974;6.786;2023-08-21T09:48:55;24.80;99.90
26378;DHT22;14078;50.974;6.786;2023-08-21T09:51:22;24.90;99.90
26378;DHT22;14078;50.974;6.786;2023-08-21T09:53:49;25.00;99.90
26378;DHT22;14078;50.974;6.786;2023-08-21T09:56:17;25.10;99.90
26378;DHT22;14078;50.974;6.786;2023-08-21T09:58:45;25.10;99.90
26378;DHT22;14078;50.974;6.786;2023-08-21T10:01:12;25.10;73.10
26378;DHT22;14078;50.974;6.786;2023-08-21T10:03:40;25.20;95.90
26378;DHT22;14078;50.974;6.786;2023-08-21T10:06:08;25.30;96.10
26378;DHT22;14078;50.974;6.786;2023-08-21T10:08:36;25.30;44.20
26378;DHT22;14078;50.974;6.786;2023-08-21T10:11:04;25.40;98.10
26378;DHT22;14078;50.974;6.786;2023-08-21T10:13:31;25.40;99.90
26378;DHT22;14078;50.974;6.786;2023-08-21T10:15:59;25.40;74.30
26378;DHT22;14078;50.974;6.786;2023-08-21T10:18:29;25.50;57.40
26378;DHT22;14078;50.974;6.786;2023-08-21T10:20:56;25.60;37.40
26378;DHT22;14078;50.974;6.786;2023-08-21T10:23:36;25.60;31.20
26378;DHT22;14078;50.974;6.786;2023-08-21T10:26:05;25.60;61.00
26378;DHT22;14078;50.974;6.786;2023-08-21T10:28:41;25.60;6.10
26378;DHT22;14078;50.974;6.786;2023-08-21T10:31:28;25.60;1.00
26378;DHT22;14078;50.974;6.786;2023-08-21T10:33:55;25.70;11.80
26378;DHT22;14078;50.974;6.786;2023-08-21T10:36:38;25.80;1.00
26378;DHT22;14078;50.974;6.786;2023-08-21T10:39:05;25.80;1.00
26378;DHT22;14078;50.974;6.786;2023-08-21T10:41:38;26.10;1.00
26378;DHT22;14078;50.974;6.786;2023-08-21T10:44:05;26.10;1.00
26378;DHT22;14078;50.974;6.786;2023-08-21T10:49:14;26.10;40.20
26378;DHT22;14078;50.974;6.786;2023-08-21T10:51:41;26.20;1.00
26378;DHT22;14078;50.974;6.786;2023-08-21T10:54:12;26.30;1.00
26378;DHT22;14078;50.974;6.786;2023-08-21T10:56:39;26.20;1.00
26378;DHT22;14078;50.974;6.786;2023-08-21T10:59:05;26.30;1.00
26378;DHT22;14078;50.974;6.786;2023-08-21T11:01:41;26.30;1.00
26378;DHT22;14078;50.974;6.786;2023-08-21T11:04:10;26.40;1.00
26378;DHT22;14078;50.974;6.786;2023-08-21T11:06:38;26.50;1.00
26378;DHT22;14078;50.974;6.786;2023-08-21T11:09:04;26.40;1.00
26378;DHT22;14078;50.974;6.786;2023-08-21T11:11:31;26.40;1.00
26378;DHT22;14078;50.974;6.786;2023-08-21T11:13:57;26.40;1.00
26378;DHT22;14078;50.974;6.786;2023-08-21T11:16:24;26.30;1.00
26378;DHT22;14078;50.974;6.786;2023-08-21T11:18:51;26.30;1.00
26378;DHT22;14078;50.974;6.786;2023-08-21T11:21:17;26.30;19.30
26378;DHT22;14078;50.974;6.786;2023-08-21T11:23:45;26.30;1.00
26378;DHT22;14078;50.974;6.786;2023-08-21T11:26:11;26.50;1.00
26378;DHT22;14078;50.974;6.786;2023-08-21T11:28:38;26.60;1.00
26378;DHT22;14078;50.974;6.786;2023-08-21T11:31:05;26.60;1.00
26378;DHT22;14078;50.974;6.786;2023-08-21T11:33:32;26.70;1.00
26378;DHT22;14078;50.974;6.786;2023-08-21T11:35:59;26.70;1.00
26378;DHT22;14078;50.974;6.786;2023-08-21T11:38:26;26.90;1.00
26378;DHT22;14078;50.974;6.786;2023-08-21T11:40:55;27.00;1.00
26378;DHT22;14078;50.974;6.786;2023-08-21T11:43:22;27.00;1.00
26378;DHT22;14078;50.974;6.786;2023-08-21T11:45:48;27.00;1.00
26378;DHT22;14078;50.974;6.786;2023-08-21T11:48:15;27.00;1.00
26378;DHT22;14078;50.974;6.786;2023-08-21T11:50:45;27.20;1.00
26378;DHT22;14078;50.974;6.786;2023-08-21T11:53:13;27.30;1.00
26378;DHT22;14078;50.974;6.786;2023-08-21T11:55:40;27.40;1.00
26378;DHT22;14078;50.974;6.786;2023-08-21T11:58:08;27.60;1.00
26378;DHT22;14078;50.974;6.786;2023-08-21T12:00:34;27.70;1.00
26378;DHT22;14078;50.974;6.786;2023-08-21T12:03:01;27.60;1.00
26378;DHT22;14078;50.974;6.786;2023-08-21T12:05:28;27.50;1.00
26378;DHT22;14078;50.974;6.786;2023-08-21T12:07:54;27.40;1.00
26378;DHT22;14078;50.974;6.786;2023-08-21T12:10:22;27.40;1.00
26378;DHT22;14078;50.974;6.786;2023-08-21T12:12:48;27.30;1.00
26378;DHT22;14078;50.974;6.786;2023-08-21T12:15:16;27.40;1.00
26378;DHT22;14078;50.974;6.786;2023-08-21T12:17:43;27.40;1.00
26378;DHT22;14078;50.974;6.786;2023-08-21T12:20:09;27.40;1.00
26378;DHT22;14078;50.974;6.786;2023-08-21T12:22:36;27.50;1.00
26378;DHT22;14078;50.974;6.786;2023-08-21T12:25:03;27.40;1.00
26378;DHT22;14078;50.974;6.786;2023-08-21T12:27:30;27.40;1.00
26378;DHT22;14078;50.974;6.786;2023-08-21T12:29:57;27.50;1.00
26378;DHT22;14078;50.974;6.786;2023-08-21T12:32:25;27.50;1.00
26378;DHT22;14078;50.974;6.786;2023-08-21T12:34:51;27.60;1.00
26378;DHT22;14078;50.974;6.786;2023-08-21T12:37:18;27.60;1.00
26378;DHT22;14078;50.974;6.786;2023-08-21T12:39:45;27.60;1.00
26378;DHT22;14078;50.974;6.786;2023-08-21T12:42:11;27.50;1.00
26378;DHT22;14078;50.974;6.786;2023-08-21T12:44:38;27.60;1.00
26378;DHT22;14078;50.974;6.786;2023-08-21T12:47:05;27.50;1.00
26378;DHT22;14078;50.974;6.786;2023-08-21T12:49:33;27.40;1.00
26378;DHT22;14078;50.974;6.786;2023-08-21T12:52:00;27.20;1.00
26378;DHT22;14078;50.974;6.786;2023-08-21T12:54:27;27.20;1.00
26378;DHT22;14078;50.974;6.786;2023-08-21T12:56:54;27.30;1.00
26378;DHT22;14078;50.974;6.786;2023-08-21T12:59:21;27.30;1.00
26378;DHT22;14078;50.974;6.786;2023-08-21T13:01:48;27.40;1.00
26378;DHT22;14078;50.974;6.786;2023-08-21T13:04:14;27.60;1.00
26378;DHT22;14078;50.974;6.786;2023-08-21T13:06:42;27.70;1.00
26378;DHT22;14078;50.974;6.786;2023-08-21T13:09:09;27.80;1.00
26378;DHT22;14078;50.974;6.786;2023-08-21T13:11:35;27.90;1.00
26378;DHT22;14078;50.974;6.786;2023-08-21T13:14:02;28.10;1.00
26378;DHT22;14078;50.974;6.786;2023-08-21T13:16:28;28.20;1.00
26378;DHT22;14078;50.974;6.786;2023-08-21T13:18:55;28.20;99.90
26378;DHT22;14078;50.974;6.786;2023-08-21T13:21:21;28.30;1.00
26378;DHT22;14078;50.974;6.786;2023-08-21T13:23:49;28.30;99.90
26378;DHT22;14078;50.974;6.786;2023-08-21T13:26:16;28.40;99.90
26378;DHT22;14078;50.974;6.786;2023-08-21T13:28:42;28.40;99.90
26378;DHT22;14078;50.974;6.786;2023-08-21T13:31:09;28.30;99.90
26378;DHT22;14078;50.974;6.786;2023-08-21T13:33:43;28.30;99.90
26378;DHT22;14078;50.974;6.786;2023-08-21T13:36:10;28.30;99.90
26378;DHT22;14078;50.974;6.786;2023-08-21T13:38:36;28.50;99.90
26378;DHT22;14078;50.974;6.786;2023-08-21T13:41:04;28.60;99.90
26378;DHT22;14078;50.974;6.786;2023-08-21T13:43:31;28.70;99.90
26378;DHT22;14078;50.974;6.786;2023-08-21T13:45:59;28.80;99.90
26378;DHT22;14078;50.974;6.786;2023-08-21T13:48:26;28.90;99.90
26378;DHT22;14078;50.974;6.786;2023-08-21T13:50:52;28.70;99.90
26378;DHT22;14078;50.974;6.786;2023-08-21T13:53:19;28.70;99.90
26378;DHT22;14078;50.974;6.786;2023-08-21T13:55:45;28.50;99.90
26378;DHT22;14078;50.974;6.786;2023-08-21T13:58:13;28.50;99.90
26378;DHT22;14078;50.974;6.786;2023-08-21T14:00:40;28.50;99.90
26378;DHT22;14078;50.974;6.786;2023-08-21T14:03:06;28.40;99.90
26378;DHT22;14078;50.974;6.786;2023-08-21T14:05:33;28.40;99.90
26378;DHT22;14078;50.974;6.786;2023-08-21T14:08:00;28.40;99.90
26378;DHT22;14078;50.974;6.786;2023-08-21T14:10:26;28.60;99.90
26378;DHT22;14078;50.974;6.786;2023-08-21T14:12:53;28.70;99.90
26378;DHT22;14078;50.974;6.786;2023-08-21T14:15:23;28.70;99.90
26378;DHT22;14078;50.974;6.786;2023-08-21T14:17:50;28.60;99.90
26378;DHT22;14078;50.974;6.786;2023-08-21T14:20:16;28.60;99.90
26378;DHT22;14078;50.974;6.786;2023-08-21T14:22:43;28.40;99.90
26378;DHT22;14078;50.974;6.786;2023-08-21T14:25:09;28.40;99.90
26378;DHT22;14078;50.974;6.786;2023-08-21T14:27:36;28.40;99.90
26378;DHT22;14078;50.974;6.786;2023-08-21T14:30:03;28.50;99.90
26378;DHT22;14078;50.974;6.786;2023-08-21T14:32:32;28.50;99.90
26378;DHT22;14078;50.974;6.786;2023-08-21T14:34:59;28.60;99.90
26378;DHT22;14078;50.974;6.786;2023-08-21T14:37:25;28.80;99.90
26378;DHT22;14078;50.974;6.786;2023-08-21T14:39:52;29.00;99.90
26378;DHT22;14078;50.974;6.786;2023-08-21T14:42:18;29.00;99.90
26378;DHT22;14078;50.974;6.786;2023-08-21T14:44:45;28.90;99.90
26378;DHT22;14078;50.974;6.786;2023-08-21T14:47:11;29.10;99.90
26378;DHT22;14078;50.974;6.786;2023-08-21T14:49:39;29.20;99.90
26378;DHT22;14078;50.974;6.786;2023-08-21T14:52:06;29.10;99.90
26378;DHT22;14078;50.974;6.786;2023-08-21T14:54:33;29.20;99.90
26378;DHT22;14078;50.974;6.786;2023-08-21T14:57:00;29.40;99.90
26378;DHT22;14078;50.974;6.786;2023-08-21T14:59:27;29.50;99.90
26378;DHT22;14078;50.974;6.786;2023-08-21T15:01:53;29.60;99.90
26378;DHT22;14078;50.974;6.786;2023-08-21T15:04:20;29.90;99.90
26378;DHT22;14078;50.974;6.786;2023-08-21T15:06:48;29.90;99.90
26378;DHT22;14078;50.974;6.786;2023-08-21T15:09:14;29.80;99.90
26378;DHT22;14078;50.974;6.786;2023-08-21T15:11:41;30.20;99.90
26378;DHT22;14078;50.974;6.786;2023-08-21T15:14:09;30.70;99.90
26378;DHT22;14078;50.974;6.786;2023-08-21T15:16:36;31.00;99.90
26378;DHT22;14078;50.974;6.786;2023-08-21T15:19:02;30.60;99.90
26378;DHT22;14078;50.974;6.786;2023-08-21T15:21:29;30.80;99.90
26378;DHT22;14078;50.974;6.786;2023-08-21T15:23:57;30.60;99.90
26378;DHT22;14078;50.974;6.786;2023-08-21T15:26:25;30.40;99.90
26378;DHT22;14078;50.974;6.786;2023-08-21T15:28:51;30.40;99.90
26378;DHT22;14078;50.974;6.786;2023-08-21T15:31:18;30.30;99.90
26378;DHT22;14078;50.974;6.786;2023-08-21T15:33:44;30.30;99.90
26378;DHT22;14078;50.974;6.786;2023-08-21T15:36:12;30.40;99.90
26378;DHT22;14078;50.974;6.786;2023-08-21T15:38:39;30.60;99.90
26378;DHT22;14078;50.974;6.786;2023-08-21T15:41:07;30.40;99.90
26378;DHT22;14078;50.974;6.786;2023-08-21T15:43:34;30.80;99.90